• Join FlightAware (Why Join?)
  • Login
  • US Flag 
01:09PM EDT


 

Airport Tracker/Info


-or-


 

Live Flight TrackerFlight Track Log ✈ N143DE ✈ 06-Jul-2013 ✈ KRDU - KLRO

Flight Track Log - Related Links

Times and Time Zones

All times are in EDT time to prevent confusion due to time zone crossing. See the N143DE flight status page for this flight to view local times or setup timezone preferences in your user account.

Time Position Orientation Groundspeed Altitude Reporting Facility
EDT Latitude Longitude Course Direction KTS MPH feet Rate Location/Type
07:17AM 35.8583 -78.8058 172° South 112 129 1,300  Level Washington Center
07:19AM 35.7981 -78.7956 172° South 168 193 4,000 1,860 Climbing Washington Center
07:20AM 35.7567 -78.7839 167° South 152 175 5,700 1,080 Climbing Washington Center
07:21AM 35.7131 -78.7769 173° South 227 261 6,100 180 Climbing Washington Center
07:22AM 35.6464 -78.7717 176° South 218 251 6,100 60 Level Washington Center
07:23AM 35.5961 -78.7825 190° South 213 245 6,300 900 Climbing Washington Center
07:24AM 35.5375 -78.7928 188° South 213 245 8,000 1,620 Climbing Washington Center
07:25AM 35.4850 -78.7983 185° South 218 251 9,600 1,440 Climbing Washington Center
07:26AM 35.4347 -78.8067 188° South 212 244 11,000 1,380 Climbing Washington Center
07:27AM 35.3825 -78.8147 187° South 202 232 12,400 1,320 Climbing Washington Center
07:28AM 35.3236 -78.8250 188° South 202 232 13,700 1,260 Climbing Washington Center
07:29AM 35.2714 -78.8331 187° South 202 232 15,000 1,080 Climbing Washington Center
07:30AM 35.2189 -78.8411 187° South 197 227 16,000 480 Climbing Washington Center
07:31AM 35.1625 -78.8492 187° South 204 235 16,000  Level Washington Center
07:32AM 35.0975 -78.8592 187° South 224 258 16,000  Level Washington Center
07:33AM 35.0325 -78.8692 187° South 234 269 16,000  Level Washington Center
07:34AM 34.9675 -78.8817 189° South 234 269 16,000  Level Washington Center
07:35AM 34.9125 -78.9100 203° Southwest 239 275 16,000  Level Washington Center
07:36AM 34.8097 -78.9558 200° South 244 281 16,000  Level Jacksonville Center
07:37AM 34.7478 -78.9814 199° South 244 281 16,000  Level Jacksonville Center
07:38AM 34.6861 -79.0094 201° Southwest 244 281 16,000  Level Jacksonville Center
07:39AM 34.6225 -79.0375 200° South 244 281 16,000  Level Jacksonville Center
07:40AM 34.5606 -79.0631 199° South 244 281 16,000  Level Jacksonville Center
07:41AM 34.4908 -79.0989 203° Southwest 249 287 16,000  Level Jacksonville Center
07:42AM 34.4311 -79.1267 201° Southwest 249 287 16,000  Level Jacksonville Center
07:43AM 34.3672 -79.1544 200° South 249 287 16,000  Level Jacksonville Center
07:44AM 34.3056 -79.1825 201° Southwest 249 287 16,000  Level Jacksonville Center
07:45AM 34.2436 -79.2050 197° South 244 281 16,000  Level Jacksonville Center
07:46AM 34.1797 -79.2353 201° Southwest 244 281 16,000  Level Jacksonville Center
07:47AM 34.1200 -79.2606 199° South 243 280 16,000  Level Jacksonville Center
07:48AM 34.0583 -79.2881 200° South 243 280 16,000  Level Jacksonville Center
07:49AM 33.9964 -79.3133 199° South 243 280 16,000  Level Jacksonville Center
07:50AM 33.9344 -79.3408 200° South 243 280 16,000  Level Jacksonville Center
07:51AM 33.8706 -79.3658 198° South 243 280 16,000  Level Jacksonville Center
07:52AM 33.8086 -79.3933 200° South 243 280 16,000  Level Jacksonville Center
07:53AM 33.7489 -79.4183 199° South 243 280 16,000 -420 Level Jacksonville Center
07:54AM 33.6953 -79.4428 201° Southwest 243 280 15,200 -960 Descending Jacksonville Center
07:55AM 33.6272 -79.4728 200° South 253 291 14,100 -1,080 Descending Jacksonville Center
07:56AM 33.5592 -79.5028 200° South 264 304 13,100 -1,020 Descending Jacksonville Center
07:57AM 33.4892 -79.5306 198° South 269 310 12,100 -900 Descending Jacksonville Center
07:58AM 33.4253 -79.5603 201° Southwest 264 304 11,400 -780 Descending Jacksonville Center
07:59AM 33.3653 -79.5875 201° Southwest 251 289 10,600 -1,020 Descending Jacksonville Center
08:00AM 33.3094 -79.6094 198° South 231 266 9,400 -1,140 Descending Jacksonville Center
08:01AM 33.2558 -79.6311 199° South 221 254 8,400 -1,140 Descending Jacksonville Center
08:02AM 33.2022 -79.6556 201° Southwest 210 242 7,200 -1,260 Descending Jacksonville Center
08:03AM 33.1525 -79.6747 198° South 205 236 5,900 -1,500 Descending Jacksonville Center
08:04AM 33.1250 -79.7378 243° Southwest 194 223 4,300 -1,740 Descending Jacksonville Center
08:05AM 33.1014 -79.7956 244° Southwest 199 229 2,500 -1,200 Descending Jacksonville Center
08:06AM 33.0708 -79.8314 225° Southwest 181 208 2,000 -540 Descending Jacksonville Center